Terminal Aerodrome Forecast
Issued by NWS Sioux Falls, SD

Home | Current Version | Previous Version | Graphics & Text | Print | Product List | Glossary On
Versions: 1 2 3 4 5 6 7 8 9 10 11 12 13
602
FTUS43 KFSD 062339
TAFHON
TAF
KHON 062339Z 0700/0724 22012KT P6SM BKN120
     FM070400 27014G20KT P6SM SCT120 WS010/30045KT
     FM071100 29020G28KT P6SM BKN120
     FM071600 30026G36KT P6SM OVC040
     FM072000 32028G40KT P6SM OVC030=

USA.gov is the U.S. government's official web portal to all federal, state and local government web resources and services.